Flight Track Log - Related Links

Times and Time Zones

All times are in EDT time to prevent confusion due to time zone crossing. See the G-VROS flight status page for this flight to view local times or setup timezone preferences in your user account.

Time Position Orientation Groundspeed Altitude Reporting Facility
EDT Latitude Longitude Course Direction KTS MPH feet Rate Location/Type
Sat 09:15:15 AM 53.3584 -2.3255 281° West  Level FlightAware Approximate
Sat 09:16:15 AM 53.3693 -2.5292 281° West  Level FlightAware Approximate
Sat 09:17:15 AM 53.3871 -2.7318 281° West  Level FlightAware Approximate
Sat 09:18:15 AM 53.4000 -2.9351 281° West  Level FlightAware Approximate
Sat 09:19:15 AM 53.4220 -3.1364 281° West  Level FlightAware Approximate
Sat 09:20:15 AM 53.4434 -3.3381 280° West  Level FlightAware Approximate
Sat 09:21:15 AM 53.4600 -3.5413 280° West  Level FlightAware Approximate
Sat 09:22:15 AM 53.4793 -3.7432 280° West  Level FlightAware Approximate
Sat 09:23:15 AM 53.4950 -3.9467 280° West  Level FlightAware Approximate
Sat 09:24:15 AM 53.5103 -4.1504 281° West  Level FlightAware Approximate
Sat 09:25:15 AM 53.5202 -4.3546 281° West  Level FlightAware Approximate
Sat 09:26:15 AM 53.5351 -4.5585 281° West  Level FlightAware Approximate
Sat 09:27:15 AM 53.5500 -4.7615 281° West  Level FlightAware Approximate
Sat 09:28:15 AM 53.5599 -4.9657 282° West  Level FlightAware Approximate
Sat 09:29:15 AM 53.5769 -5.1692 282° West  Level FlightAware Approximate
Sat 09:30:15 AM 53.5905 -5.3737 283° West  Level FlightAware Approximate
Sat 09:31:15 AM 53.6000 -5.5783 284° West  Level FlightAware Approximate
Sat 09:32:15 AM 53.6148 -5.7824 285° West  Level FlightAware Approximate
Sat 09:33:15 AM 53.6274 -5.9872 288° West  Level FlightAware Approximate
Sat 09:34:15 AM 53.6405 -6.1910 291° West  Level FlightAware Approximate
Sat 09:35:15 AM 53.6524 -6.3960 299° West  Level FlightAware Approximate
Sat 09:36:15 AM 53.6598 -6.6010 320° Northwest  Level FlightAware Approximate
Sat 09:37:15 AM 53.6711 -6.8063 18° North  Level FlightAware Approximate
Sat 09:38:15 AM 53.6820 -7.0116 61° Northeast  Level FlightAware Approximate
Sat 09:39:15 AM 53.6926 -7.2170 74° East  Level FlightAware Approximate
Sat 09:40:15 AM 53.7028 -7.4225 80° East  Level FlightAware Approximate
Sat 09:41:00 AM 53.7680 -6.7530 277° West -1  Level FlightAware Direct Aircraft Datalink
Sat 10:26:00 AM 54.0630 -17.1780 269° West -1 598 Level FlightAware Direct Aircraft Datalink
Sat 10:38:00 AM 54.0000 -20.0000 274° West 480 552 34,000  Climbing ETMS Enhanced Traffic Management System
Sat 11:11:00 AM 54.1170 -27.2000 267° West -1 -437 Descending FlightAware Direct Aircraft Datalink
Sat 11:56:00 AM 53.4930 -36.5070 259° West -1 307 Level FlightAware Direct Aircraft Datalink
Sat 11:56:15 AM 52.4209 -36.0005 266° West  Level FlightAware Approximate
Sat 11:57:15 AM 52.3763 -36.1868 266° West  Level FlightAware Approximate
Sat 11:58:15 AM 52.3314 -36.3727 266° West  Level FlightAware Approximate
Sat 11:59:15 AM 52.2862 -36.5583 266° West  Level FlightAware Approximate
Sat 12:00:15 PM 52.2407 -36.7434 267° West  Level FlightAware Approximate
Sat 12:01:15 PM 52.1949 -36.9282 267° West  Level FlightAware Approximate
Sat 12:02:15 PM 52.1488 -37.1126 267° West  Level FlightAware Approximate
Sat 12:03:15 PM 52.1025 -37.2966 267° West  Level FlightAware Approximate
Sat 12:04:15 PM 52.0558 -37.4802 267° West  Level FlightAware Approximate
Sat 12:05:15 PM 52.0089 -37.6634 267° West  Level FlightAware Approximate
Sat 12:06:15 PM 51.9617 -37.8463 267° West  Level FlightAware Approximate
Sat 12:07:15 PM 51.9142 -38.0288 268° West  Level FlightAware Approximate
Sat 12:08:15 PM 51.8664 -38.2108 268° West  Level FlightAware Approximate
Sat 12:09:15 PM 51.8184 -38.3926 268° West  Level FlightAware Approximate
Sat 12:10:15 PM 51.7700 -38.5739 268° West  Level FlightAware Approximate
Sat 12:11:15 PM 51.7214 -38.7548 268° West  Level FlightAware Approximate
Sat 12:12:15 PM 51.6725 -38.9353 269° West  Level FlightAware Approximate
Sat 12:13:15 PM 51.6234 -39.1155 269° West  Level FlightAware Approximate
Sat 12:14:15 PM 51.5739 -39.2952 269° West  Level FlightAware Approximate
Sat 12:15:15 PM 51.5242 -39.4746 269° West  Level FlightAware Approximate
Sat 12:16:15 PM 51.4742 -39.6535 270° West  Level FlightAware Approximate
Sat 12:17:15 PM 51.4240 -39.8321 270° West  Level FlightAware Approximate
Sat 12:18:15 PM 51.3734 -40.0103 270° West  Level FlightAware Approximate
Sat 12:19:15 PM 51.3226 -40.1880 270° West  Level FlightAware Approximate
Sat 12:20:15 PM 51.2716 -40.3654 271° West  Level FlightAware Approximate
Sat 12:21:15 PM 51.2202 -40.5424 271° West  Level FlightAware Approximate
Sat 12:21:57 PM 52.0039 -41.1294 263° West  Level FlightAware Approximate
Sat 12:23:15 PM 51.9246 -41.3526 263° West  Level FlightAware Approximate
Sat 12:24:15 PM 51.8634 -41.5238 264° West  Level FlightAware Approximate
Sat 12:25:15 PM 51.8019 -41.6945 264° West  Level FlightAware Approximate
Sat 12:26:15 PM 51.7402 -41.8648 265° West  Level FlightAware Approximate
Sat 12:27:15 PM 51.6783 -42.0346 265° West  Level FlightAware Approximate
Sat 12:28:15 PM 51.6161 -42.2040 266° West  Level FlightAware Approximate
Sat 12:29:15 PM 51.5536 -42.3728 266° West  Level FlightAware Approximate
Sat 12:30:15 PM 51.4909 -42.5412 267° West  Level FlightAware Approximate
Sat 12:31:15 PM 51.4280 -42.7092 267° West  Level FlightAware Approximate
Sat 12:32:15 PM 51.3648 -42.8767 268° West  Level FlightAware Approximate
Sat 12:33:15 PM 51.3014 -43.0437 268° West  Level FlightAware Approximate
Sat 12:34:15 PM 51.2378 -43.2103 269° West  Level FlightAware Approximate
Sat 12:35:15 PM 51.1739 -43.3764 270° West  Level FlightAware Approximate
Sat 12:36:15 PM 51.1097 -43.5420 270° West  Level FlightAware Approximate
Sat 12:37:15 PM 51.0454 -43.7072 271° West  Level FlightAware Approximate
Sat 12:38:15 PM 50.9808 -43.8719 272° West  Level FlightAware Approximate
Sat 12:39:15 PM 50.9160 -44.0362 273° West  Level FlightAware Approximate
Sat 12:40:15 PM 50.8509 -44.2000 274° West  Level FlightAware Approximate
Sat 12:41:15 PM 50.7857 -44.3633 275° West  Level FlightAware Approximate
Sat 12:42:15 PM 50.7202 -44.5262 276° West  Level FlightAware Approximate
Sat 12:43:15 PM 50.6544 -44.6886 277° West  Level FlightAware Approximate
Sat 12:44:15 PM 50.5885 -44.8506 278° West  Level FlightAware Approximate
Sat 12:45:15 PM 50.5223 -45.0121 279° West  Level FlightAware Approximate
Sat 12:46:15 PM 50.4559 -45.1732 280° West  Level FlightAware Approximate
Sat 12:47:15 PM 50.3893 -45.3338 282° West  Level FlightAware Approximate
Sat 12:48:15 PM 50.3224 -45.4940 283° West  Level FlightAware Approximate
Sat 12:49:15 PM 50.2554 -45.6537 285° West  Level FlightAware Approximate
Sat 12:50:15 PM 50.1881 -45.8130 286° West  Level FlightAware Approximate
Sat 12:51:15 PM 50.1206 -45.9718 288° West  Level FlightAware Approximate
Sat 12:52:15 PM 50.0529 -46.1302 290° West  Level FlightAware Approximate
Sat 12:53:15 PM 49.9850 -46.2881 292° West  Level FlightAware Approximate
Sat 12:54:15 PM 49.9168 -46.4456 294° West  Level FlightAware Approximate
Sat 12:55:15 PM 49.8485 -46.6026 296° West  Level FlightAware Approximate
Sat 12:56:15 PM 49.7799 -46.7592 298° West  Level FlightAware Approximate
Sat 12:57:15 PM 49.7111 -46.9153 301° West  Level FlightAware Approximate
Sat 12:58:15 PM 49.6421 -47.0710 303° West  Level FlightAware Approximate
Sat 12:59:15 PM 49.5729 -47.2263 306° West  Level FlightAware Approximate
Sat 01:00:15 PM 49.5036 -47.3811 308° West  Level FlightAware Approximate
Sat 01:01:15 PM 49.4339 -47.5355 311° West  Level FlightAware Approximate
Sat 01:02:15 PM 49.3641 -47.6894 314° West  Level FlightAware Approximate
Sat 01:03:15 PM 49.2941 -47.8429 317° Northwest  Level FlightAware Approximate
Sat 01:04:15 PM 49.2926 -48.0325 319° Northwest  Level FlightAware Approximate
Sat 01:05:15 PM 49.2909 -48.2222 321° Northwest  Level FlightAware Approximate
Sat 01:06:15 PM 49.2888 -48.4118 324° Northwest  Level FlightAware Approximate
Sat 01:07:15 PM 49.2864 -48.6015 327° Northwest  Level FlightAware Approximate
Sat 01:08:15 PM 49.2837 -48.7911 330° Northwest  Level FlightAware Approximate
Sat 01:08:46 PM 50.9333 -50.3333 245° Southwest 420 483 36,000  Level Gander Center
Sat 01:09:46 PM 50.8833 -50.5000 252° West 420 483 36,800 848 Climbing Gander Center
Sat 01:10:18 PM 50.8667 -50.5833 247° West 420 483 37,300 717 Climbing Moncton Center
Sat 01:11:18 PM 50.8167 -50.7667 254° West 440 506 37,900 350 Climbing Moncton Center
Sat 01:12:18 PM 50.7833 -50.9500 247° West 440 506 38,000 50 Climbing Moncton Center
Sat 01:13:18 PM 50.7333 -51.1333 253° West 440 506 38,000  Level Moncton Center
Sat 01:14:18 PM 50.7000 -51.3000 249° West 440 506 38,000  Level Moncton Center
Sat 01:15:18 PM 50.6500 -51.5000 249° West 440 506 38,000  Level Moncton Center
Sat 01:16:31 PM 50.6000 -51.7000 251° West 440 506 38,000  Level Gander Center
Sat 01:17:18 PM 50.5667 -51.8500 246° West 440 506 38,000  Level Moncton Center
Sat 01:18:31 PM 50.5000 -52.0833 247° West 440 506 38,000  Level Gander Center
Sat 01:19:31 PM 50.4500 -52.2667 254° West 440 506 38,000  Level Gander Center
Sat 01:20:31 PM 50.4167 -52.4500 253° West 450 518 38,000  Level Gander Center
Sat 01:21:31 PM 50.3833 -52.6167 249° West 450 518 38,000  Level Gander Center
Sat 01:22:31 PM 50.3333 -52.8167 238° Southwest 450 518 38,000  Level Gander Center
Sat 01:23:31 PM 50.2667 -52.9833 254° West 450 518 38,000  Level Gander Center
Sat 01:24:31 PM 50.2333 -53.1667 245° Southwest 450 518 38,000  Level Gander Center
Sat 01:25:31 PM 50.1833 -53.3333 249° West 450 518 38,000  Level Gander Center
Sat 01:26:31 PM 50.1333 -53.5333 243° Southwest 450 518 38,000  Level Gander Center
Sat 01:27:31 PM 50.0833 -53.6833 249° West 450 518 38,000  Level Gander Center
Sat 01:28:31 PM 50.0333 -53.8833 254° West 450 518 38,000  Level Gander Center
Sat 01:29:31 PM 50.0000 -54.0667 238° Southwest 450 518 38,000  Level Gander Center
Sat 01:30:31 PM 49.9333 -54.2333 254° West 440 506 38,000  Level Gander Center
Sat 01:31:31 PM 49.9000 -54.4167 238° Southwest 440 506 38,000  Level Gander Center
Sat 01:32:31 PM 49.8333 -54.5833 260° West 440 506 38,000  Level Gander Center
Sat 01:33:18 PM 49.8167 -54.7333 238° Southwest 450 518 38,000  Level Moncton Center
Sat 01:34:18 PM 49.7500 -54.9000 247° West 450 518 38,000  Level Moncton Center
Sat 01:35:18 PM 49.7000 -55.0833 245° Southwest 450 518 38,000  Level Moncton Center
Sat 01:36:18 PM 49.6500 -55.2500 238° Southwest 450 518 38,000  Level Moncton Center
Sat 01:37:18 PM 49.5833 -55.4167 256° West 450 518 38,000  Level Moncton Center
Sat 01:38:18 PM 49.5500 -55.6167 232° Southwest 460 529 38,000  Level Moncton Center
Sat 01:39:18 PM 49.4667 -55.7833 245° Southwest 450 518 38,000  Level Moncton Center
Sat 01:40:18 PM 49.4167 -55.9500 248° West 450 518 38,000  Level Moncton Center
Sat 01:41:46 PM 49.3500 -56.2000 247° West 450 518 38,000  Level Gander Center
Sat 01:42:46 PM 49.3000 -56.3833 239° Southwest 450 518 38,000  Level Gander Center
Sat 01:43:46 PM 49.2333 -56.5500 247° West 450 518 38,000  Level Gander Center
Sat 01:44:46 PM 49.1833 -56.7333 236° Southwest 450 518 38,000  Level Gander Center
Sat 01:45:46 PM 49.1167 -56.8833 243° Southwest 450 518 38,000  Level Gander Center
Sat 01:47:18 PM 49.0333 -57.1333 243° Southwest 450 518 38,000  Level Moncton Center
Sat 01:48:18 PM 48.9667 -57.3333 243° Southwest 450 518 38,000  Level Moncton Center
Sat 01:49:18 PM 48.9167 -57.4833 246° West 450 518 38,000  Level Moncton Center
Sat 01:50:18 PM 48.8667 -57.6500 235° Southwest 460 529 38,000  Level Moncton Center
Sat 01:51:18 PM 48.7833 -57.8333 246° West 460 529 38,000  Level Moncton Center
Sat 01:52:18 PM 48.7333 -58.0000 241° Southwest 460 529 38,000  Level Moncton Center
Sat 01:53:18 PM 48.6667 -58.1833 243° Southwest 460 529 38,000  Level Moncton Center
Sat 01:54:18 PM 48.6167 -58.3333 243° Southwest 460 529 38,000  Level Moncton Center
Sat 01:55:18 PM 48.5500 -58.5333 243° Southwest 460 529 38,000  Level Moncton Center
Sat 01:56:18 PM 48.5000 -58.6833 241° Southwest 460 529 38,000  Level Moncton Center
Sat 01:57:18 PM 48.4333 -58.8667 246° West 460 529 38,000  Level Moncton Center
Sat 01:58:18 PM 48.3833 -59.0333 236° Southwest 460 529 38,000  Level Moncton Center
Sat 01:59:18 PM 48.3000 -59.2167 243° Southwest 460 529 38,000  Level Moncton Center
Sat 02:00:19 PM 48.2500 -59.3667 241° Southwest 460 529 38,000  Level Moncton Center
Sat 02:01:18 PM 48.1833 -59.5500 236° Southwest 460 529 38,000  Level Moncton Center
Sat 02:02:18 PM 48.1167 -59.7000 246° West 460 529 38,000  Level Moncton Center
Sat 02:03:18 PM 48.0667 -59.8667 242° Southwest 460 529 38,000  Level Moncton Center
Sat 02:04:18 PM 48.0000 -60.0500 236° Southwest 450 518 38,000  Level Moncton Center
Sat 02:05:18 PM 47.9333 -60.2000 244° Southwest 450 518 38,000  Level Moncton Center
Sat 02:06:18 PM 47.8833 -60.3500 242° Southwest 460 529 38,000  Level Moncton Center
Sat 02:07:18 PM 47.8167 -60.5333 230° Southwest 460 529 38,000  Level Moncton Center
Sat 02:08:18 PM 47.7333 -60.6833 248° West 460 529 38,000  Level Moncton Center
Sat 02:09:18 PM 47.6833 -60.8667 237° Southwest 460 529 38,000  Level Moncton Center
Sat 02:10:18 PM 47.6167 -61.0167 237° Southwest 460 529 38,000  Level Moncton Center
Sat 02:11:18 PM 47.5500 -61.1667 248° West 460 529 38,000  Level Moncton Center
Sat 02:12:18 PM 47.5000 -61.3500 237° Southwest 460 529 38,000  Level Moncton Center
Sat 02:13:18 PM 47.4333 -61.5000 237° Southwest 460 529 38,000  Level Moncton Center
Sat 02:14:18 PM 47.3667 -61.6500 242° Southwest 450 518 38,000  Level Moncton Center
Sat 02:15:18 PM 47.3000 -61.8333 237° Southwest 450 518 38,000  Level Moncton Center
Sat 02:16:18 PM 47.2333 -61.9833 244° Southwest 450 518 38,000  Level Moncton Center
Sat 02:17:18 PM 47.1833 -62.1333 240° Southwest 450 518 38,000  Level Moncton Center
Sat 02:18:18 PM 47.1167 -62.3000 231° Southwest 450 518 38,000  Level Moncton Center
Sat 02:19:18 PM 47.0333 -62.4500 244° Southwest 450 518 38,000  Level Moncton Center
Sat 02:20:19 PM 46.9833 -62.6000 236° Southwest 450 518 38,000  Level Moncton Center
Sat 02:21:18 PM 46.9000 -62.7833 237° Southwest 450 518 38,000  Level Moncton Center
Sat 02:22:18 PM 46.8333 -62.9333 240° Southwest 450 518 38,000  Level Moncton Center
Sat 02:23:18 PM 46.7667 -63.1000 237° Southwest 450 518 38,000  Level Moncton Center
Sat 02:24:18 PM 46.7000 -63.2500 237° Southwest 450 518 38,000  Level Moncton Center
Sat 02:25:19 PM 46.6333 -63.4000 246° West 450 518 38,000  Level Moncton Center
Sat 02:26:18 PM 46.5833 -63.5667 237° Southwest 450 518 38,000  Level Moncton Center
Sat 02:27:18 PM 46.5167 -63.7167 237° Southwest 450 518 38,000  Level Moncton Center
Sat 02:28:18 PM 46.4500 -63.8667 237° Southwest 450 518 38,000  Level Moncton Center
Sat 02:29:18 PM 46.3833 -64.0167 240° Southwest 450 518 38,000  Level Moncton Center
Sat 02:30:18 PM 46.3167 -64.1833 234° Southwest 450 518 38,000  Level Moncton Center
Sat 02:31:18 PM 46.2500 -64.3167 242° Southwest 450 518 38,000  Level Moncton Center
Sat 02:32:18 PM 46.1833 -64.5000 234° Southwest 450 518 38,000  Level Moncton Center
Sat 02:33:18 PM 46.1167 -64.6333 237° Southwest 450 518 38,000  Level Moncton Center
Sat 02:34:18 PM 46.0500 -64.7833 226° Southwest 450 518 38,000  Level Moncton Center
Sat 02:35:18 PM 45.9500 -64.9333 240° Southwest 450 518 38,000  Level Moncton Center
Sat 02:36:18 PM 45.8833 -65.1000 234° Southwest 450 518 38,000  Level Moncton Center
Sat 02:37:18 PM 45.8167 -65.2333 238° Southwest 450 518 38,000  Level Moncton Center
Sat 02:38:18 PM 45.7500 -65.3833 234° Southwest 450 518 38,000  Level Moncton Center
Sat 02:39:18 PM 45.6833 -65.5167 238° Southwest 440 506 38,000  Level Moncton Center
Sat 02:40:18 PM 45.6167 -65.6667 235° Southwest 440 506 38,000  Level Moncton Center
Sat 02:41:18 PM 45.5500 -65.8000 240° Southwest 440 506 38,000  Level Moncton Center
Sat 02:42:18 PM 45.4833 -65.9667 238° Southwest 450 518 38,000  Level Moncton Center
Sat 02:43:18 PM 45.4167 -66.1167 235° Southwest 450 518 38,000  Level Moncton Center
Sat 02:44:18 PM 45.3500 -66.2500 232° Southwest 450 518 38,000  Level Moncton Center
Sat 02:45:18 PM 45.2667 -66.4000 235° Southwest 450 518 38,000  Level Moncton Center
Sat 02:46:18 PM 45.2000 -66.5333 235° Southwest 450 518 38,000  Level Moncton Center
Sat 02:47:18 PM 45.1167 -66.7000 235° Southwest 450 518 38,000  Level Moncton Center
Sat 02:48:18 PM 45.0500 -66.8333 235° Southwest 450 518 38,000  Level Moncton Center
Sat 02:49:18 PM 44.9833 -66.9667 239° Southwest 450 518 38,000 -47 Level Moncton Center
Sat 02:50:27 PM 44.9106 -67.1394 227° Southwest 456 525 37,900  Descending Boston Center
Sat 02:51:27 PM 44.8247 -67.2703 225° Southwest 450 518 38,000 50 Climbing Boston Center
Sat 02:52:27 PM 44.7344 -67.3953 227° Southwest 456 525 38,000  Level Boston Center
Sat 02:53:27 PM 44.6581 -67.5097 224° Southwest 456 525 38,000  Level Boston Center
Sat 02:54:27 PM 44.5672 -67.6311 226° Southwest 451 519 38,000  Level Boston Center
Sat 02:55:27 PM 44.4806 -67.7547 224° Southwest 451 519 38,000  Level Boston Center
Sat 02:56:27 PM 44.3897 -67.8783 225° Southwest 459 528 38,000  Level Boston Center
Sat 02:57:27 PM 44.3008 -68.0011 225° Southwest 459 528 38,000  Level Boston Center
Sat 02:58:27 PM 44.2136 -68.1208 224° Southwest 459 528 38,000  Level Boston Center
Sat 02:59:27 PM 44.1261 -68.2369 224° Southwest 454 522 38,000  Level Boston Center
Sat 03:00:27 PM 44.0386 -68.3558 226° Southwest 449 517 38,000  Level Boston Center
Sat 03:01:27 PM 43.9533 -68.4769 224° Southwest 444 511 38,000  Level Boston Center
Sat 03:02:27 PM 43.8594 -68.6014 224° Southwest 437 503 38,000  Level Boston Center
Sat 03:03:27 PM 43.7736 -68.7161 224° Southwest 437 503 38,000  Level Boston Center
Sat 03:04:27 PM 43.6858 -68.8336 225° Southwest 437 503 38,000  Level Boston Center
Sat 03:05:27 PM 43.6017 -68.9506 222° Southwest 437 503 38,000  Level Boston Center
Sat 03:06:27 PM 43.5256 -69.0467 224° Southwest 437 503 38,000  Level Boston Center
Sat 03:07:27 PM 43.4392 -69.1600 224° Southwest 437 503 38,000  Level Boston Center
Sat 03:08:27 PM 43.3547 -69.2703 224° Southwest 437 503 38,000  Level Boston Center
Sat 03:09:27 PM 43.2683 -69.3861 223° Southwest 437 503 38,000  Level Boston Center
Sat 03:10:27 PM 43.1836 -69.4956 224° Southwest 437 503 38,000  Level Boston Center
Sat 03:11:27 PM 43.0989 -69.6078 223° Southwest 437 503 38,000  Level Boston Center
Sat 03:12:27 PM 43.0119 -69.7197 224° Southwest 437 503 38,000  Level Boston Center
Sat 03:13:27 PM 42.9289 -69.8283 224° Southwest 437 503 38,000  Level Boston Center
Sat 03:14:27 PM 42.8439 -69.9394 224° Southwest 437 503 38,000  Level Boston Center
Sat 03:15:27 PM 42.7628 -70.0475 224° Southwest 425 489 38,000  Level Boston Center
Sat 03:16:27 PM 42.6817 -70.1522 224° Southwest 419 482 38,000 -50 Level Boston Center
Sat 03:17:27 PM 42.5983 -70.2597 223° Southwest 419 482 37,900 -50 Descending Boston Center
Sat 03:18:27 PM 42.5147 -70.3642 223° Southwest 413 475 37,900  Level Boston Center
Sat 03:19:27 PM 42.4333 -70.4653 222° Southwest 413 475 37,900  Level Boston Center
Sat 03:20:27 PM 42.3475 -70.5692 224° Southwest 413 475 37,900  Level Boston Center
Sat 03:21:27 PM 42.2700 -70.6697 223° Southwest 408 470 37,900  Level Boston Center
Sat 03:22:27 PM 42.1900 -70.7700 223° Southwest 408 470 37,900 100 Level Boston Center
Sat 03:23:27 PM 42.0958 -70.8872 222° Southwest 418 481 38,100 600 Climbing Boston Center
Sat 03:24:27 PM 42.0117 -70.9900 223° Southwest 418 481 39,100 850 Climbing Boston Center
Sat 03:25:27 PM 41.9278 -71.0950 222° Southwest 418 481 39,800 400 Climbing Boston Center
Sat 03:26:27 PM 41.8414 -71.2000 222° Southwest 418 481 39,900 50 Climbing Boston Center
Sat 03:27:27 PM 41.7528 -71.3075 223° Southwest 418 481 39,900  Level Boston Center
Sat 03:28:27 PM 41.6664 -71.4147 222° Southwest 423 487 39,900  Level Boston Center
Sat 03:29:27 PM 41.5775 -71.5217 220° Southwest 429 494 39,900  Level Boston Center
Sat 03:30:27 PM 41.4992 -71.6086 222° Southwest 424 488 39,900  Level Boston Center
Sat 03:31:27 PM 41.4103 -71.7150 222° Southwest 424 488 39,900 35 Level Boston Center
Sat 03:33:17 PM 41.2314 -71.9257 222° Southwest 435 501 40,000 42 Climbing FlightAware ADS-B
Sat 03:33:51 PM 41.1804 -71.9861 222° Southwest 436 502 40,000  Level FlightAware ADS-B
Sat 03:34:22 PM 41.1337 -72.0415 222° Southwest 438 504 40,000 -95 Level FlightAware ADS-B
Sat 03:34:54 PM 41.0854 -72.0990 222° Southwest 440 506 39,900  Descending FlightAware ADS-B
Sat 03:35:25 PM 41.0385 -72.1545 222° Southwest 441 507 40,000  Climbing FlightAware ADS-B
Sat 03:36:00 PM 40.9853 -72.2174 222° Southwest 442 509 39,900 -92 Descending FlightAware ADS-B
Sat 03:36:30 PM 40.9381 -72.2732 221° Southwest 443 510 39,900  Level FlightAware ADS-B
Sat 03:37:01 PM 40.8914 -72.3270 221° Southwest 443 510 39,900 91 Level FlightAware ADS-B
Sat 03:37:36 PM 40.8375 -72.3899 222° Southwest 444 511 40,000 88 Climbing FlightAware ADS-B
Sat 03:38:09 PM 40.7869 -72.4493 221° Southwest 446 513 40,000  Level FlightAware ADS-B
Sat 03:38:41 PM 40.7372 -72.5071 221° Southwest 447 514 40,000 -90 Level FlightAware ADS-B
Sat 03:39:16 PM 40.6831 -72.5701 221° Southwest 448 516 39,900 -88 Descending FlightAware ADS-B
Sat 03:39:49 PM 40.6318 -72.6296 221° Southwest 448 516 39,900  Level FlightAware ADS-B
Sat 03:40:19 PM 40.5843 -72.6834 222° Southwest 448 516 39,900 91 Level FlightAware ADS-B
Sat 03:40:55 PM 40.5290 -72.7481 221° Southwest 448 516 40,000 90 Climbing FlightAware ADS-B
Sat 03:41:26 PM 40.4804 -72.8038 221° Southwest 448 516 40,000  Level FlightAware ADS-B
Sat 03:42:06 PM 40.4175 -72.8755 222° Southwest 449 517 40,000  Level FlightAware ADS-B
Sat 03:42:45 PM 40.3573 -72.9456 221° Southwest 451 519 40,000 -86 Level FlightAware ADS-B
Sat 03:43:16 PM 40.3080 -73.0013 221° Southwest 451 519 39,900  Descending FlightAware ADS-B
Sat 03:43:49 PM 40.2583 -73.0588 220° Southwest 451 519 40,000  Climbing FlightAware ADS-B
Sat 03:44:21 PM 40.2055 -73.1177 222° Southwest 449 517 39,900  Descending FlightAware ADS-B
Sat 03:44:56 PM 40.1521 -73.1799 221° Southwest 447 514 40,000  Climbing FlightAware ADS-B
Sat 03:45:32 PM 40.0947 -73.2452 220° Southwest 445 512 39,900 -87 Descending FlightAware ADS-B
Sat 03:46:05 PM 40.0437 -73.3014 221° Southwest 444 511 39,900  Level FlightAware ADS-B
Sat 03:46:36 PM 39.9962 -73.3557 221° Southwest 442 509 39,900  Level FlightAware ADS-B
Sat 03:47:08 PM 39.9475 -73.4114 220° Southwest 440 506 39,900 97 Level FlightAware ADS-B
Sat 03:47:38 PM 39.9003 -73.4633 221° Southwest 439 505 40,000 98 Climbing FlightAware ADS-B
Sat 03:48:09 PM 39.8536 -73.5167 220° Southwest 437 503 40,000  Level FlightAware ADS-B
Sat 03:48:39 PM 39.8067 -73.5683 221° Southwest 437 503 40,000  Level FlightAware ADS-B
Sat 03:49:11 PM 39.7576 -73.6230 219° Southwest 436 502 40,000  Level FlightAware ADS-B
Sat 03:49:34 PM 39.7217 -73.6609 216° Southwest 438 504 40,000  Level FlightAware ADS-B
Sat 03:50:04 PM 39.6718 -73.7088 215° Southwest 438 504 40,000  Level FlightAware ADS-B
Sat 03:50:39 PM 39.6147 -73.7612 216° Southwest 437 503 40,000 -88 Level FlightAware ADS-B
Sat 03:51:12 PM 39.5610 -73.8124 217° Southwest 435 501 39,900  Descending FlightAware ADS-B
Sat 03:51:45 PM 39.5090 -73.8639 217° Southwest 434 499 40,000 94 Climbing FlightAware ADS-B
Sat 03:52:16 PM 39.4593 -73.9121 217° Southwest 434 499 40,000 -98 Level FlightAware ADS-B
Sat 03:52:46 PM 39.4111 -73.9587 216° Southwest 432 497 39,900  Descending FlightAware ADS-B
Sat 03:53:16 PM 39.3618 -74.0051 217° Southwest 432 497 40,000 100 Climbing FlightAware ADS-B
Sat 03:53:46 PM 39.3140 -74.0514 217° Southwest 432 497 40,000  Level FlightAware ADS-B
Sat 03:54:16 PM 39.2654 -74.0990 216° Southwest 433 498 40,000 -75 Level FlightAware ADS-B
Sat 03:55:06 PM 39.1846 -74.1744 217° Southwest 435 501 39,900  Descending FlightAware ADS-B
Sat 03:55:37 PM 39.1358 -74.2222 216° Southwest 435 501 40,000 98 Climbing FlightAware ADS-B
Sat 03:56:07 PM 39.0863 -74.2683 216° Southwest 435 501 40,000  Level FlightAware ADS-B
Sat 03:56:37 PM 39.0373 -74.3146 217° Southwest 436 502 40,000 -86 Level FlightAware ADS-B
Sat 03:57:17 PM 38.9728 -74.3760 217° Southwest 436 502 39,900  Descending FlightAware ADS-B
Sat 03:57:51 PM 38.9178 -74.4283 216° Southwest 435 501 40,000 94 Climbing FlightAware ADS-B
Sat 03:58:21 PM 38.8689 -74.4740 216° Southwest 436 502 40,000  Level FlightAware ADS-B
Sat 03:58:51 PM 38.8193 -74.5197 216° Southwest 435 501 40,000  Level FlightAware ADS-B
Sat 03:59:23 PM 38.7680 -74.5681 216° Southwest 434 499 40,000  Level FlightAware ADS-B
Sat 03:59:53 PM 38.7190 -74.6135 216° Southwest 434 499 40,000  Level FlightAware ADS-B
Sat 04:00:24 PM 38.6679 -74.6617 216° Southwest 432 497 40,000  Level FlightAware ADS-B
Sat 04:00:55 PM 38.6178 -74.7081 216° Southwest 430 495 40,000 -97 Level FlightAware ADS-B
Sat 04:01:26 PM 38.5689 -74.7530 216° Southwest 430 495 39,900 -98 Descending FlightAware ADS-B
Sat 04:01:56 PM 38.5206 -74.7975 216° Southwest 427 491 39,900 98 Level FlightAware ADS-B
Sat 04:02:27 PM 38.4713 -74.8433 216° Southwest 426 490 40,000 97 Climbing FlightAware ADS-B
Sat 04:02:58 PM 38.4217 -74.8889 216° Southwest 426 490 40,000 -76 Level FlightAware ADS-B
Sat 04:03:46 PM 38.3448 -74.9595 215° Southwest 426 490 39,900  Descending FlightAware ADS-B
Sat 04:04:18 PM 38.2929 -75.0065 216° Southwest 426 490 40,000  Climbing FlightAware ADS-B
Sat 04:04:49 PM 38.2435 -75.0518 216° Southwest 426 490 39,900 -94 Descending FlightAware ADS-B
Sat 04:05:22 PM 38.1902 -75.1002 216° Southwest 427 491 39,900 67 Level FlightAware ADS-B
Sat 04:06:18 PM 38.1015 -75.1820 215° Southwest 427 491 40,000  Climbing FlightAware ADS-B
Sat 04:06:48 PM 38.0526 -75.2259 216° Southwest 428 493 39,900  Descending FlightAware ADS-B
Sat 04:07:20 PM 38.0014 -75.2729 215° Southwest 429 494 40,000 90 Climbing FlightAware ADS-B
Sat 04:07:55 PM 37.9444 -75.3243 215° Southwest 432 497 40,000  Level FlightAware ADS-B
Sat 04:08:29 PM 37.8889 -75.3742 216° Southwest 432 497 40,000  Level FlightAware ADS-B
Sat 04:09:54 PM 37.7505 -75.4994 216° Southwest 432 497 40,000  Level FlightAware ADS-B
Sat 04:10:28 PM 37.6952 -75.5495 215° Southwest 436 502 40,000 -88 Level FlightAware ADS-B
Sat 04:11:02 PM 37.6379 -75.5997 216° Southwest 438 504 39,900  Descending FlightAware ADS-B
Sat 04:11:35 PM 37.5845 -75.6485 215° Southwest 438 504 40,000  Climbing FlightAware ADS-B
Sat 04:12:07 PM 37.5305 -75.6957 215° Southwest 438 504 39,900  Descending FlightAware ADS-B
Sat 04:12:45 PM 37.4674 -75.7517 221° Southwest 438 504 40,000  Climbing FlightAware ADS-B
Sat 04:13:09 PM 37.4389 -75.7828 215° Southwest 437 503 39,900 -71 Descending Washington Center
Sat 04:14:10 PM 37.3364 -75.8739 214° Southwest 437 503 39,900 37 Level Washington Center
Sat 04:15:52 PM 37.1579 -76.0268 215° Southwest 438 504 40,000  Climbing FlightAware ADS-B
Sat 04:16:22 PM 37.1078 -76.0704 215° Southwest 437 503 39,900 -97 Descending FlightAware ADS-B
Sat 04:16:54 PM 37.0557 -76.1169 215° Southwest 435 501 39,900 97 Level FlightAware ADS-B
Sat 04:17:24 PM 37.0054 -76.1604 215° Southwest 434 499 40,000  Climbing FlightAware ADS-B
Sat 04:18:19 PM 36.9147 -76.2396 215° Southwest 435 501 39,900 -61 Descending FlightAware ADS-B
Sat 04:19:02 PM 36.8450 -76.3016 214° Southwest 435 501 39,900 54 Level FlightAware ADS-B
Sat 04:20:11 PM 36.7500 -76.3825 216° Southwest 443 510 40,000  Climbing Washington Center
Sat 04:21:09 PM 36.6408 -76.4825 215° Southwest 443 510 39,900 -51 Descending Washington Center
Sat 04:22:09 PM 36.5444 -76.5667 214° Southwest 443 510 39,900  Level Washington Center
Sat 04:23:10 PM 36.4478 -76.6481 215° Southwest 437 503 39,900  Level Washington Center
Sat 04:24:10 PM 36.3508 -76.7319 215° Southwest 427 491 39,900  Level Washington Center
Sat 04:25:11 PM 36.2542 -76.8156 214° Southwest 432 497 39,900  Level Washington Center
Sat 04:26:09 PM 36.1553 -76.8989 214° Southwest 432 497 39,900  Level Washington Center
Sat 04:27:09 PM 36.0561 -76.9819 216° Southwest 432 497 39,900  Level Washington Center
Sat 04:28:10 PM 35.9614 -77.0675 219° Southwest 432 497 39,900  Level Washington Center
Sat 04:29:11 PM 35.8683 -77.1606 220° Southwest 432 497 39,900  Level Washington Center
Sat 04:30:09 PM 35.7772 -77.2536 220° Southwest 432 497 39,900  Level Washington Center
Sat 04:31:10 PM 35.6842 -77.3489 219° Southwest 432 497 39,900  Level Washington Center
Sat 04:32:11 PM 35.5908 -77.4414 219° Southwest 432 497 39,900  Level Washington Center
Sat 04:33:09 PM 35.4978 -77.5336 220° Southwest 432 497 39,900  Level Washington Center
Sat 04:34:09 PM 35.4044 -77.6281 219° Southwest 432 497 39,900  Level Washington Center
Sat 04:35:10 PM 35.3236 -77.7075 219° Southwest 432 497 39,900  Level Washington Center
Sat 04:36:11 PM 35.2322 -77.7992 219° Southwest 432 497 39,900  Level Washington Center
Sat 04:37:09 PM 35.1386 -77.8906 219° Southwest 432 497 39,900  Level Washington Center
Sat 04:38:09 PM 35.0494 -77.9794 218° Southwest 425 489 39,900  Level Washington Center
Sat 04:39:10 PM 34.9494 -78.0753 220° Southwest 430 495 39,900  Level Washington Center
Sat 04:40:10 PM 34.8597 -78.1661 220° Southwest 425 489 39,900  Level Washington Center
Sat 04:41:10 PM 34.7808 -78.2472 220° Southwest 425 489 39,900  Level Washington Center
Sat 04:42:11 PM 34.6933 -78.3353 218° Southwest 415 478 39,900  Level Washington Center
Sat 04:42:58 PM 34.6203 -78.4044 216° Southwest 417 480 39,900  Level Jacksonville Center
Sat 04:43:58 PM 34.5150 -78.4981 222° Southwest 422 486 39,900  Level Jacksonville Center
Sat 04:44:58 PM 34.4386 -78.5825 219° Southwest 428 493 39,900  Level Jacksonville Center
Sat 04:45:58 PM 34.3478 -78.6700 227° Southwest 423 487 39,900  Level Jacksonville Center
Sat 04:46:58 PM 34.2697 -78.7719 229° Southwest 417 480 39,900  Level Jacksonville Center
Sat 04:47:57 PM 34.1919 -78.8808 229° Southwest 417 480 39,900  Level Jacksonville Center
Sat 04:48:57 PM 34.1139 -78.9875 223° Southwest 422 486 39,900  Level Jacksonville Center
Sat 04:49:57 PM 34.0292 -79.0839 224° Southwest 422 486 39,900  Level Jacksonville Center
Sat 04:50:57 PM 33.9425 -79.1853 224° Southwest 428 493 39,900  Level Jacksonville Center
Sat 04:51:58 PM 33.8597 -79.2814 221° Southwest 428 493 39,900  Level Jacksonville Center
Sat 04:52:57 PM 33.7686 -79.3750 212° Southwest 428 493 39,900  Level Jacksonville Center
Sat 04:53:57 PM 33.6706 -79.4486 212° Southwest 428 493 39,900  Level Jacksonville Center
Sat 04:54:57 PM 33.5661 -79.5275 213° Southwest 433 498 39,900  Level Jacksonville Center
Sat 04:55:57 PM 33.4639 -79.6061 213° Southwest 438 504 39,900  Level Jacksonville Center
Sat 04:56:57 PM 33.3636 -79.6844 213° Southwest 438 504 39,900  Level Jacksonville Center
Sat 04:57:57 PM 33.2614 -79.7628 211° Southwest 438 504 39,900  Level Jacksonville Center
Sat 04:58:57 PM 33.1506 -79.8433 212° Southwest 438 504 39,900  Level Jacksonville Center
Sat 04:59:57 PM 33.0481 -79.9189 212° Southwest 438 504 39,900  Level Jacksonville Center
Sat 05:00:57 PM 32.9456 -79.9964 212° Southwest 433 498 39,900  Level Jacksonville Center
Sat 05:01:57 PM 32.8408 -80.0739 212° Southwest 438 504 39,900  Level Jacksonville Center
Sat 05:02:57 PM 32.7400 -80.1486 212° Southwest 438 504 39,900  Level Jacksonville Center
Sat 05:03:57 PM 32.6375 -80.2258 212° Southwest 443 510 39,900  Level Jacksonville Center
Sat 05:04:57 PM 32.5367 -80.3003 212° Southwest 438 504 39,900  Level Jacksonville Center
Sat 05:05:57 PM 32.4358 -80.3744 220° Southwest 433 498 39,900 -446 Level Jacksonville Center
Sat 05:06:58 PM 32.3478 -80.4631 228° Southwest 417 480 39,000 -1,000 Descending Jacksonville Center
Sat 05:07:57 PM 32.2683 -80.5683 228° Southwest 423 487 37,900 -550 Descending Jacksonville Center
Sat 05:08:58 PM 32.1889 -80.6733 230° Southwest 435 501 37,900 50 Level Jacksonville Center
Sat 05:09:58 PM 32.1133 -80.7808 213° Southwest 440 506 38,000 50 Climbing Jacksonville Center
Sat 05:10:58 PM 32.0125 -80.8589 191° South 433 498 38,000 -50 Level Jacksonville Center
Sat 05:11:58 PM 31.9022 -80.8833 190° South 440 506 37,900 -750 Descending Jacksonville Center
Sat 05:12:58 PM 31.7669 -80.9108 191° South 454 522 36,500 -1,200 Descending Jacksonville Center
Sat 05:13:58 PM 31.6503 -80.9378 190° South 439 505 35,500 -1,000 Descending Jacksonville Center
Sat 05:14:58 PM 31.5422 -80.9594 190° South 439 505 34,500 -750 Descending Jacksonville Center
Sat 05:15:58 PM 31.4131 -80.9864 190° South 439 505 34,000 -300 Descending Jacksonville Center
Sat 05:16:58 PM 31.3069 -81.0081 191° South 433 498 33,900 -50 Descending Jacksonville Center
Sat 05:17:58 PM 31.1883 -81.0347 189° South 433 498 33,900  Level Jacksonville Center
Sat 05:18:58 PM 31.0656 -81.0567 193° South 439 505 33,900  Level Jacksonville Center
Sat 05:19:58 PM 30.9511 -81.0878 190° South 439 505 33,900  Level Jacksonville Center
Sat 05:20:58 PM 30.8283 -81.1119 191° South 439 505 33,900  Level Jacksonville Center
Sat 05:21:58 PM 30.7075 -81.1383 186° South 444 511 33,900 -600 Level Jacksonville Center
Sat 05:22:58 PM 30.5761 -81.1531 178° South 444 511 32,700 -1,300 Descending Jacksonville Center
Sat 05:23:58 PM 30.4508 -81.1481 178° South 444 511 31,300 -1,350 Descending Jacksonville Center
Sat 05:24:58 PM 30.3297 -81.1431 179° South 444 511 30,000 -1,200 Descending Jacksonville Center
Sat 05:25:58 PM 30.2044 -81.1403 180° South 444 511 28,900 -1,050 Descending Jacksonville Center
Sat 05:26:58 PM 30.0811 -81.1403 178° South 444 511 27,900 -950 Descending Jacksonville Center
Sat 05:27:58 PM 29.9600 -81.1353 179° South 438 504 27,000 -1,450 Descending Jacksonville Center
Sat 05:28:58 PM 29.8453 -81.1325 179° South 433 498 25,000 -2,300 Descending Jacksonville Center
Sat 05:29:58 PM 29.7367 -81.1297 179° South 413 475 22,400 -2,250 Descending Jacksonville Center
Sat 05:30:58 PM 29.6258 -81.1269 179° South 401 461 20,500 -1,765 Descending Jacksonville Center
Sat 05:31:57 PM 29.5194 -81.1242 178° South 396 456 18,900 6,807 Descending Jacksonville Center
Sat 05:32:57 PM 29.4192 -81.1211 177° South 381 438 34,000 -1,750 Climbing Jacksonville Center
Sat 05:33:57 PM 29.3189 -81.1158 180° South 371 427 15,400 -10,250 Descending Jacksonville Center
Sat 05:34:57 PM 29.2228 -81.1153 174° South 360 414 13,500 -1,700 Descending Jacksonville Center
Sat 05:35:57 PM 29.1267 -81.1028 175° South 355 409 12,000 -750 Descending Jacksonville Center
Sat 05:36:57 PM 29.0411 -81.0947 172° South 335 386 12,000  Level Jacksonville Center
Sat 05:37:57 PM 28.9572 -81.0819 172° South 321 369 12,000 -550 Level Jacksonville Center
Sat 05:38:57 PM 28.8736 -81.0692 167° South 310 357 10,900 -1,266 Descending Jacksonville Center
Sat 05:39:46 PM 28.8000 -81.0500 204° Southwest 290 334 9,700 -1,869 Descending Orlando TRACON
Sat 05:40:59 PM 28.7333 -81.0833 263° West 284 327 7,100 -1,695 Descending Orlando TRACON
Sat 05:41:57 PM 28.7247 -81.1692 262° West 216 249 6,000 -814 Descending Jacksonville Center
Sat 05:42:57 PM 28.7153 -81.2472 223° Southwest 223 257 5,500 -600 Descending Jacksonville Center
Sat 05:43:57 PM 28.6761 -81.2883 178° South 206 237 4,800 -1,024 Descending Jacksonville Center
Sat 05:45:47 PM 28.5667 -81.2833 180° South 188 216 2,600 -1,091 Descending Orlando TRACON
Sat 05:46:53 PM 28.5167 -81.2833 180° South 165 190 1,600 -850 Descending Orlando TRACON
Sat 05:47:54 PM 28.4833 -81.2833 180° South 149 171 800 -787 Descending Orlando TRACON

Login

Don't have an account? Register now (free) for customized features, flight alerts, and more!